sensor_id;sensor_type;location;lat;lon;timestamp;temperature;humidity
27803;DHT22;15182;48.174;11.562;2023-07-20T00:02:23;28.20;61.30
27803;DHT22;15182;48.174;11.562;2023-07-20T00:04:51;28.20;61.30
27803;DHT22;15182;48.174;11.562;2023-07-20T00:07:18;28.10;61.40
27803;DHT22;15182;48.174;11.562;2023-07-20T00:09:46;28.10;61.50
27803;DHT22;15182;48.174;11.562;2023-07-20T00:12:14;28.00;61.40
27803;DHT22;15182;48.174;11.562;2023-07-20T00:14:42;28.00;61.40
27803;DHT22;15182;48.174;11.562;2023-07-20T00:17:11;28.00;61.70
27803;DHT22;15182;48.174;11.562;2023-07-20T00:19:39;27.90;61.60
27803;DHT22;15182;48.174;11.562;2023-07-20T00:22:07;27.90;62.40
27803;DHT22;15182;48.174;11.562;2023-07-20T00:24:35;27.90;62.50
27803;DHT22;15182;48.174;11.562;2023-07-20T00:27:03;27.90;61.70
27803;DHT22;15182;48.174;11.562;2023-07-20T00:29:31;27.80;61.80
27803;DHT22;15182;48.174;11.562;2023-07-20T00:31:59;27.80;61.90
27803;DHT22;15182;48.174;11.562;2023-07-20T00:34:28;27.80;62.00
27803;DHT22;15182;48.174;11.562;2023-07-20T00:36:56;27.80;62.20
27803;DHT22;15182;48.174;11.562;2023-07-20T00:39:24;27.80;62.20
27803;DHT22;15182;48.174;11.562;2023-07-20T00:41:52;27.80;62.20
27803;DHT22;15182;48.174;11.562;2023-07-20T00:44:20;27.80;62.20
27803;DHT22;15182;48.174;11.562;2023-07-20T00:46:48;27.80;62.30
27803;DHT22;15182;48.174;11.562;2023-07-20T00:49:16;27.80;62.60
27803;DHT22;15182;48.174;11.562;2023-07-20T00:51:49;27.80;62.40
27803;DHT22;15182;48.174;11.562;2023-07-20T00:54:18;27.80;62.50
27803;DHT22;15182;48.174;11.562;2023-07-20T00:56:46;27.80;62.50
27803;DHT22;15182;48.174;11.562;2023-07-20T00:59:14;27.70;62.50
27803;DHT22;15182;48.174;11.562;2023-07-20T01:01:42;27.70;63.30
27803;DHT22;15182;48.174;11.562;2023-07-20T01:04:11;27.70;62.60
27803;DHT22;15182;48.174;11.562;2023-07-20T01:06:45;27.70;62.50
27803;DHT22;15182;48.174;11.562;2023-07-20T01:09:26;27.60;62.70
27803;DHT22;15182;48.174;11.562;2023-07-20T01:12:00;27.60;62.80
27803;DHT22;15182;48.174;11.562;2023-07-20T01:14:32;27.60;62.80
27803;DHT22;15182;48.174;11.562;2023-07-20T01:17:01;27.60;62.80
27803;DHT22;15182;48.174;11.562;2023-07-20T01:19:29;27.60;63.80
27803;DHT22;15182;48.174;11.562;2023-07-20T01:22:08;27.60;63.00
27803;DHT22;15182;48.174;11.562;2023-07-20T01:25:07;27.60;63.30
27803;DHT22;15182;48.174;11.562;2023-07-20T01:28:09;27.50;63.20
27803;DHT22;15182;48.174;11.562;2023-07-20T01:30:55;27.50;63.10
27803;DHT22;15182;48.174;11.562;2023-07-20T01:33:25;27.50;63.20
27803;DHT22;15182;48.174;11.562;2023-07-20T01:35:56;27.50;63.30
27803;DHT22;15182;48.174;11.562;2023-07-20T01:38:25;27.40;63.20
27803;DHT22;15182;48.174;11.562;2023-07-20T01:40:53;27.40;63.30
27803;DHT22;15182;48.174;11.562;2023-07-20T01:43:21;27.40;63.30
27803;DHT22;15182;48.174;11.562;2023-07-20T01:45:49;27.40;63.30
27803;DHT22;15182;48.174;11.562;2023-07-20T01:48:17;27.40;64.20
27803;DHT22;15182;48.174;11.562;2023-07-20T01:50:52;27.40;63.30
27803;DHT22;15182;48.174;11.562;2023-07-20T01:53:21;27.40;63.30
27803;DHT22;15182;48.174;11.562;2023-07-20T01:55:49;27.40;63.30
27803;DHT22;15182;48.174;11.562;2023-07-20T01:58:19;27.30;63.30
27803;DHT22;15182;48.174;11.562;2023-07-20T02:00:47;27.30;63.40
27803;DHT22;15182;48.174;11.562;2023-07-20T02:03:15;27.30;63.50
27803;DHT22;15182;48.174;11.562;2023-07-20T02:05:44;27.30;63.40
27803;DHT22;15182;48.174;11.562;2023-07-20T02:08:12;27.20;63.30
27803;DHT22;15182;48.174;11.562;2023-07-20T02:10:40;27.20;63.40
27803;DHT22;15182;48.174;11.562;2023-07-20T02:13:08;27.20;63.50
27803;DHT22;15182;48.174;11.562;2023-07-20T02:15:36;27.20;63.60
27803;DHT22;15182;48.174;11.562;2023-07-20T02:18:04;27.20;63.60
27803;DHT22;15182;48.174;11.562;2023-07-20T02:20:34;27.20;63.70
27803;DHT22;15182;48.174;11.562;2023-07-20T02:23:03;27.10;63.70
27803;DHT22;15182;48.174;11.562;2023-07-20T02:25:31;27.10;64.00
27803;DHT22;15182;48.174;11.562;2023-07-20T02:27:59;27.10;64.10
27803;DHT22;15182;48.174;11.562;2023-07-20T02:30:27;27.00;64.00
27803;DHT22;15182;48.174;11.562;2023-07-20T02:32:55;27.00;64.10
27803;DHT22;15182;48.174;11.562;2023-07-20T02:35:24;26.90;64.20
27803;DHT22;15182;48.174;11.562;2023-07-20T02:37:53;26.90;64.40
27803;DHT22;15182;48.174;11.562;2023-07-20T02:40:22;26.80;64.50
27803;DHT22;15182;48.174;11.562;2023-07-20T02:42:50;26.80;64.60
27803;DHT22;15182;48.174;11.562;2023-07-20T02:45:18;26.80;64.60
27803;DHT22;15182;48.174;11.562;2023-07-20T02:47:46;26.70;64.70
27803;DHT22;15182;48.174;11.562;2023-07-20T02:50:14;26.80;64.80
27803;DHT22;15182;48.174;11.562;2023-07-20T02:52:41;26.70;64.80
27803;DHT22;15182;48.174;11.562;2023-07-20T02:55:09;26.70;65.60
27803;DHT22;15182;48.174;11.562;2023-07-20T02:57:38;26.70;64.80
27803;DHT22;15182;48.174;11.562;2023-07-20T03:00:07;26.70;64.80
27803;DHT22;15182;48.174;11.562;2023-07-20T03:02:36;26.70;64.80
27803;DHT22;15182;48.174;11.562;2023-07-20T03:05:05;26.70;65.00
27803;DHT22;15182;48.174;11.562;2023-07-20T03:07:33;26.60;64.90
27803;DHT22;15182;48.174;11.562;2023-07-20T03:10:01;26.60;65.70
27803;DHT22;15182;48.174;11.562;2023-07-20T03:12:30;26.60;65.60
27803;DHT22;15182;48.174;11.562;2023-07-20T03:15:02;26.60;64.70
27803;DHT22;15182;48.174;11.562;2023-07-20T03:17:30;26.60;64.80
27803;DHT22;15182;48.174;11.562;2023-07-20T03:19:59;26.50;64.60
27803;DHT22;15182;48.174;11.562;2023-07-20T03:22:29;26.50;64.60
27803;DHT22;15182;48.174;11.562;2023-07-20T03:24:58;26.50;64.60
27803;DHT22;15182;48.174;11.562;2023-07-20T03:27:27;26.40;64.40
27803;DHT22;15182;48.174;11.562;2023-07-20T03:29:55;26.40;64.40
27803;DHT22;15182;48.174;11.562;2023-07-20T03:32:24;26.30;64.30
27803;DHT22;15182;48.174;11.562;2023-07-20T03:34:52;26.30;64.40
27803;DHT22;15182;48.174;11.562;2023-07-20T03:37:20;26.30;64.40
27803;DHT22;15182;48.174;11.562;2023-07-20T03:39:47;26.20;64.50
27803;DHT22;15182;48.174;11.562;2023-07-20T03:42:15;26.20;65.00
27803;DHT22;15182;48.174;11.562;2023-07-20T03:44:43;26.20;65.30
27803;DHT22;15182;48.174;11.562;2023-07-20T03:47:11;26.10;65.60
27803;DHT22;15182;48.174;11.562;2023-07-20T03:49:40;26.10;66.20
27803;DHT22;15182;48.174;11.562;2023-07-20T03:52:08;26.00;66.70
27803;DHT22;15182;48.174;11.562;2023-07-20T03:54:36;26.00;66.90
27803;DHT22;15182;48.174;11.562;2023-07-20T03:57:04;26.00;67.00
27803;DHT22;15182;48.174;11.562;2023-07-20T03:59:32;25.90;67.20
27803;DHT22;15182;48.174;11.562;2023-07-20T04:02:00;25.80;67.50
27803;DHT22;15182;48.174;11.562;2023-07-20T04:04:28;25.70;67.60
27803;DHT22;15182;48.174;11.562;2023-07-20T04:06:57;25.70;67.80
27803;DHT22;15182;48.174;11.562;2023-07-20T04:09:25;25.60;68.10
27803;DHT22;15182;48.174;11.562;2023-07-20T04:11:52;25.60;68.30
27803;DHT22;15182;48.174;11.562;2023-07-20T04:14:21;25.50;69.20
27803;DHT22;15182;48.174;11.562;2023-07-20T04:16:49;25.40;68.30
27803;DHT22;15182;48.174;11.562;2023-07-20T04:19:18;25.40;68.60
27803;DHT22;15182;48.174;11.562;2023-07-20T04:21:45;25.40;68.80
27803;DHT22;15182;48.174;11.562;2023-07-20T04:24:15;25.30;68.90
27803;DHT22;15182;48.174;11.562;2023-07-20T04:26:43;25.30;69.40
27803;DHT22;15182;48.174;11.562;2023-07-20T04:29:10;25.20;69.30
27803;DHT22;15182;48.174;11.562;2023-07-20T04:31:41;25.20;69.50
27803;DHT22;15182;48.174;11.562;2023-07-20T04:34:09;25.20;69.90
27803;DHT22;15182;48.174;11.562;2023-07-20T04:36:37;25.20;69.90
27803;DHT22;15182;48.174;11.562;2023-07-20T04:39:05;25.20;70.10
27803;DHT22;15182;48.174;11.562;2023-07-20T04:41:39;25.20;70.10
27803;DHT22;15182;48.174;11.562;2023-07-20T04:44:06;25.20;70.10
27803;DHT22;15182;48.174;11.562;2023-07-20T04:46:34;25.20;70.10
27803;DHT22;15182;48.174;11.562;2023-07-20T04:49:03;25.20;70.40
27803;DHT22;15182;48.174;11.562;2023-07-20T04:51:35;25.10;70.30
27803;DHT22;15182;48.174;11.562;2023-07-20T04:54:03;25.10;70.40
27803;DHT22;15182;48.174;11.562;2023-07-20T04:56:35;25.10;70.50
27803;DHT22;15182;48.174;11.562;2023-07-20T04:59:07;25.10;70.50
27803;DHT22;15182;48.174;11.562;2023-07-20T05:01:35;25.10;70.80
27803;DHT22;15182;48.174;11.562;2023-07-20T05:04:03;25.20;70.60
27803;DHT22;15182;48.174;11.562;2023-07-20T05:06:31;25.10;71.60
27803;DHT22;15182;48.174;11.562;2023-07-20T05:09:01;25.10;70.60
27803;DHT22;15182;48.174;11.562;2023-07-20T05:11:29;25.10;70.80
27803;DHT22;15182;48.174;11.562;2023-07-20T05:13:57;25.10;70.70
27803;DHT22;15182;48.174;11.562;2023-07-20T05:16:26;25.10;70.80
27803;DHT22;15182;48.174;11.562;2023-07-20T05:18:57;25.00;70.70
27803;DHT22;15182;48.174;11.562;2023-07-20T05:21:24;25.00;70.70
27803;DHT22;15182;48.174;11.562;2023-07-20T05:23:52;25.00;70.50
27803;DHT22;15182;48.174;11.562;2023-07-20T05:26:20;25.00;71.10
27803;DHT22;15182;48.174;11.562;2023-07-20T05:28:48;25.00;69.90
27803;DHT22;15182;48.174;11.562;2023-07-20T05:31:16;25.00;69.90
27803;DHT22;15182;48.174;11.562;2023-07-20T05:33:45;25.00;69.60
27803;DHT22;15182;48.174;11.562;2023-07-20T05:36:25;25.00;69.20
27803;DHT22;15182;48.174;11.562;2023-07-20T05:38:53;25.00;68.80
27803;DHT22;15182;48.174;11.562;2023-07-20T05:41:21;24.90;68.50
27803;DHT22;15182;48.174;11.562;2023-07-20T05:43:48;25.00;68.00
27803;DHT22;15182;48.174;11.562;2023-07-20T05:46:16;24.90;67.70
27803;DHT22;15182;48.174;11.562;2023-07-20T05:48:45;24.90;67.50
27803;DHT22;15182;48.174;11.562;2023-07-20T05:51:13;24.90;67.30
27803;DHT22;15182;48.174;11.562;2023-07-20T05:53:41;24.90;67.00
27803;DHT22;15182;48.174;11.562;2023-07-20T05:56:09;24.90;66.60
27803;DHT22;15182;48.174;11.562;2023-07-20T05:58:37;24.90;67.30
27803;DHT22;15182;48.174;11.562;2023-07-20T06:01:05;24.90;66.20
27803;DHT22;15182;48.174;11.562;2023-07-20T06:03:33;24.90;66.10
27803;DHT22;15182;48.174;11.562;2023-07-20T06:06:02;24.90;66.00
27803;DHT22;15182;48.174;11.562;2023-07-20T06:08:31;24.80;65.90
27803;DHT22;15182;48.174;11.562;2023-07-20T06:10:59;24.80;65.80
27803;DHT22;15182;48.174;11.562;2023-07-20T06:13:27;24.80;65.80
27803;DHT22;15182;48.174;11.562;2023-07-20T06:15:54;24.80;65.70
27803;DHT22;15182;48.174;11.562;2023-07-20T06:18:23;24.80;65.80
27803;DHT22;15182;48.174;11.562;2023-07-20T06:20:50;24.90;65.80
27803;DHT22;15182;48.174;11.562;2023-07-20T06:23:20;24.90;65.90
27803;DHT22;15182;48.174;11.562;2023-07-20T06:25:48;24.90;65.90
27803;DHT22;15182;48.174;11.562;2023-07-20T06:28:16;24.90;65.90
27803;DHT22;15182;48.174;11.562;2023-07-20T06:30:44;25.00;66.00
27803;DHT22;15182;48.174;11.562;2023-07-20T06:33:12;25.00;65.80
27803;DHT22;15182;48.174;11.562;2023-07-20T06:35:41;25.00;66.00
27803;DHT22;15182;48.174;11.562;2023-07-20T06:38:10;25.10;65.80
27803;DHT22;15182;48.174;11.562;2023-07-20T06:40:39;25.10;65.80
27803;DHT22;15182;48.174;11.562;2023-07-20T06:43:07;25.10;65.80
27803;DHT22;15182;48.174;11.562;2023-07-20T06:45:34;25.20;65.70
27803;DHT22;15182;48.174;11.562;2023-07-20T06:48:02;25.20;65.70
27803;DHT22;15182;48.174;11.562;2023-07-20T06:50:30;25.20;65.90
27803;DHT22;15182;48.174;11.562;2023-07-20T06:52:58;25.20;65.70
27803;DHT22;15182;48.174;11.562;2023-07-20T06:55:29;25.20;65.80
27803;DHT22;15182;48.174;11.562;2023-07-20T06:57:58;25.20;65.70
27803;DHT22;15182;48.174;11.562;2023-07-20T07:00:26;25.20;65.70
27803;DHT22;15182;48.174;11.562;2023-07-20T07:02:54;25.30;66.00
27803;DHT22;15182;48.174;11.562;2023-07-20T07:05:22;25.30;66.20
27803;DHT22;15182;48.174;11.562;2023-07-20T07:07:49;25.30;66.10
27803;DHT22;15182;48.174;11.562;2023-07-20T07:10:17;25.30;66.90
27803;DHT22;15182;48.174;11.562;2023-07-20T07:12:45;25.30;65.80
27803;DHT22;15182;48.174;11.562;2023-07-20T07:15:14;25.30;66.30
27803;DHT22;15182;48.174;11.562;2023-07-20T07:17:42;25.30;66.20
27803;DHT22;15182;48.174;11.562;2023-07-20T07:20:11;25.30;66.10
27803;DHT22;15182;48.174;11.562;2023-07-20T07:22:38;25.30;66.10
27803;DHT22;15182;48.174;11.562;2023-07-20T07:25:10;25.30;66.20
27803;DHT22;15182;48.174;11.562;2023-07-20T07:27:38;25.30;66.20
27803;DHT22;15182;48.174;11.562;2023-07-20T07:30:07;25.40;66.20
27803;DHT22;15182;48.174;11.562;2023-07-20T07:32:36;25.40;65.90
27803;DHT22;15182;48.174;11.562;2023-07-20T07:35:05;25.40;65.70
27803;DHT22;15182;48.174;11.562;2023-07-20T07:37:33;25.40;65.70
27803;DHT22;15182;48.174;11.562;2023-07-20T07:40:01;25.40;65.70
27803;DHT22;15182;48.174;11.562;2023-07-20T07:42:29;25.50;65.50
27803;DHT22;15182;48.174;11.562;2023-07-20T07:44:57;25.40;65.70
27803;DHT22;15182;48.174;11.562;2023-07-20T07:47:25;25.50;65.10
27803;DHT22;15182;48.174;11.562;2023-07-20T07:49:54;25.50;64.90
27803;DHT22;15182;48.174;11.562;2023-07-20T07:52:22;25.50;64.70
27803;DHT22;15182;48.174;11.562;2023-07-20T07:54:50;25.60;64.40
27803;DHT22;15182;48.174;11.562;2023-07-20T07:57:18;25.60;64.80
27803;DHT22;15182;48.174;11.562;2023-07-20T07:59:46;25.60;65.00
27803;DHT22;15182;48.174;11.562;2023-07-20T08:02:14;25.70;64.60
27803;DHT22;15182;48.174;11.562;2023-07-20T08:04:41;25.70;64.00
27803;DHT22;15182;48.174;11.562;2023-07-20T08:07:10;25.80;64.00
27803;DHT22;15182;48.174;11.562;2023-07-20T08:09:38;25.80;63.80
27803;DHT22;15182;48.174;11.562;2023-07-20T08:12:07;25.90;63.70
27803;DHT22;15182;48.174;11.562;2023-07-20T08:14:35;25.90;63.10
27803;DHT22;15182;48.174;11.562;2023-07-20T08:17:03;26.00;63.00
27803;DHT22;15182;48.174;11.562;2023-07-20T08:19:31;26.00;63.00
27803;DHT22;15182;48.174;11.562;2023-07-20T08:21:59;26.00;62.90
27803;DHT22;15182;48.174;11.562;2023-07-20T08:24:28;26.10;62.80
27803;DHT22;15182;48.174;11.562;2023-07-20T08:26:56;26.10;62.60
27803;DHT22;15182;48.174;11.562;2023-07-20T08:29:24;26.20;62.80
27803;DHT22;15182;48.174;11.562;2023-07-20T08:31:51;26.20;62.70
27803;DHT22;15182;48.174;11.562;2023-07-20T08:34:19;26.30;62.50
27803;DHT22;15182;48.174;11.562;2023-07-20T08:36:47;26.40;62.50
27803;DHT22;15182;48.174;11.562;2023-07-20T08:39:15;26.40;62.00
27803;DHT22;15182;48.174;11.562;2023-07-20T08:41:44;26.50;62.00
27803;DHT22;15182;48.174;11.562;2023-07-20T08:44:12;26.50;61.40
27803;DHT22;15182;48.174;11.562;2023-07-20T08:46:41;26.50;62.20
27803;DHT22;15182;48.174;11.562;2023-07-20T08:49:11;26.40;61.10
27803;DHT22;15182;48.174;11.562;2023-07-20T08:51:39;26.40;61.30
27803;DHT22;15182;48.174;11.562;2023-07-20T08:54:08;26.40;61.30
27803;DHT22;15182;48.174;11.562;2023-07-20T08:56:38;26.40;61.40
27803;DHT22;15182;48.174;11.562;2023-07-20T08:59:09;26.40;61.40
27803;DHT22;15182;48.174;11.562;2023-07-20T09:01:39;26.40;61.80
27803;DHT22;15182;48.174;11.562;2023-07-20T09:04:07;26.40;61.90
27803;DHT22;15182;48.174;11.562;2023-07-20T09:06:35;26.40;61.70
27803;DHT22;15182;48.174;11.562;2023-07-20T09:09:03;26.50;61.80
27803;DHT22;15182;48.174;11.562;2023-07-20T09:11:31;26.60;61.90
27803;DHT22;15182;48.174;11.562;2023-07-20T09:14:03;26.70;62.00
27803;DHT22;15182;48.174;11.562;2023-07-20T09:16:46;26.80;61.90
27803;DHT22;15182;48.174;11.562;2023-07-20T09:19:15;26.90;61.60
27803;DHT22;15182;48.174;11.562;2023-07-20T09:21:47;26.90;61.20
27803;DHT22;15182;48.174;11.562;2023-07-20T09:24:18;27.00;60.50
27803;DHT22;15182;48.174;11.562;2023-07-20T09:26:47;27.20;60.10
27803;DHT22;15182;48.174;11.562;2023-07-20T09:29:18;27.20;60.10
27803;DHT22;15182;48.174;11.562;2023-07-20T09:32:00;27.30;60.00
27803;DHT22;15182;48.174;11.562;2023-07-20T09:34:29;27.40;59.90
27803;DHT22;15182;48.174;11.562;2023-07-20T09:36:58;27.50;59.80
27803;DHT22;15182;48.174;11.562;2023-07-20T09:39:26;27.60;59.90
27803;DHT22;15182;48.174;11.562;2023-07-20T09:41:54;27.70;59.60
27803;DHT22;15182;48.174;11.562;2023-07-20T09:44:22;27.80;59.20
27803;DHT22;15182;48.174;11.562;2023-07-20T09:46:50;27.90;58.90
27803;DHT22;15182;48.174;11.562;2023-07-20T09:49:19;27.90;58.70
27803;DHT22;15182;48.174;11.562;2023-07-20T09:51:48;28.00;58.70
27803;DHT22;15182;48.174;11.562;2023-07-20T09:54:17;28.00;58.50
27803;DHT22;15182;48.174;11.562;2023-07-20T09:56:45;28.10;58.30
27803;DHT22;15182;48.174;11.562;2023-07-20T09:59:15;28.20;58.20
27803;DHT22;15182;48.174;11.562;2023-07-20T10:01:44;28.30;58.40
27803;DHT22;15182;48.174;11.562;2023-07-20T10:04:14;28.40;58.20
27803;DHT22;15182;48.174;11.562;2023-07-20T10:06:47;28.40;58.20
27803;DHT22;15182;48.174;11.562;2023-07-20T10:09:17;28.50;58.60
27803;DHT22;15182;48.174;11.562;2023-07-20T10:11:50;28.60;58.40
27803;DHT22;15182;48.174;11.562;2023-07-20T10:14:20;28.70;58.00
27803;DHT22;15182;48.174;11.562;2023-07-20T10:16:50;28.80;58.10
27803;DHT22;15182;48.174;11.562;2023-07-20T10:19:23;29.00;57.90
27803;DHT22;15182;48.174;11.562;2023-07-20T10:22:00;29.10;58.10
27803;DHT22;15182;48.174;11.562;2023-07-20T10:28:13;29.30;57.80
27803;DHT22;15182;48.174;11.562;2023-07-20T10:30:41;29.30;57.60
27803;DHT22;15182;48.174;11.562;2023-07-20T10:33:10;29.30;58.00
27803;DHT22;15182;48.174;11.562;2023-07-20T10:35:53;29.20;57.50
27803;DHT22;15182;48.174;11.562;2023-07-20T10:38:42;29.00;57.30
27803;DHT22;15182;48.174;11.562;2023-07-20T10:41:17;28.90;57.30
27803;DHT22;15182;48.174;11.562;2023-07-20T10:43:46;28.80;57.70
27803;DHT22;15182;48.174;11.562;2023-07-20T10:46:14;28.70;57.70
27803;DHT22;15182;48.174;11.562;2023-07-20T10:49:01;28.60;57.90
27803;DHT22;15182;48.174;11.562;2023-07-20T10:51:31;28.60;57.90
27803;DHT22;15182;48.174;11.562;2023-07-20T10:54:11;28.50;58.10
27803;DHT22;15182;48.174;11.562;2023-07-20T10:57:22;28.50;58.10
27803;DHT22;15182;48.174;11.562;2023-07-20T11:00:08;28.50;58.10
27803;DHT22;15182;48.174;11.562;2023-07-20T11:02:46;28.50;58.20
27803;DHT22;15182;48.174;11.562;2023-07-20T11:05:32;28.40;58.20
27803;DHT22;15182;48.174;11.562;2023-07-20T11:08:04;28.40;58.20
27803;DHT22;15182;48.174;11.562;2023-07-20T11:10:34;28.40;58.20
27803;DHT22;15182;48.174;11.562;2023-07-20T11:13:18;28.30;58.10
27803;DHT22;15182;48.174;11.562;2023-07-20T11:15:53;28.30;58.30
27803;DHT22;15182;48.174;11.562;2023-07-20T11:18:29;28.30;59.00
27803;DHT22;15182;48.174;11.562;2023-07-20T11:20:58;28.30;58.60
27803;DHT22;15182;48.174;11.562;2023-07-20T11:23:26;28.40;58.60
27803;DHT22;15182;48.174;11.562;2023-07-20T11:26:41;28.40;58.60
27803;DHT22;15182;48.174;11.562;2023-07-20T11:29:09;28.50;58.30
27803;DHT22;15182;48.174;11.562;2023-07-20T11:31:37;28.70;58.60
27803;DHT22;15182;48.174;11.562;2023-07-20T11:34:06;28.80;58.20
27803;DHT22;15182;48.174;11.562;2023-07-20T11:36:37;28.90;58.00
27803;DHT22;15182;48.174;11.562;2023-07-20T11:39:07;29.00;57.60
27803;DHT22;15182;48.174;11.562;2023-07-20T11:41:36;29.10;57.50
27803;DHT22;15182;48.174;11.562;2023-07-20T11:44:05;29.10;57.50
27803;DHT22;15182;48.174;11.562;2023-07-20T11:46:34;29.00;57.50
27803;DHT22;15182;48.174;11.562;2023-07-20T11:49:03;29.00;57.30
27803;DHT22;15182;48.174;11.562;2023-07-20T11:51:31;29.00;57.40
27803;DHT22;15182;48.174;11.562;2023-07-20T11:54:00;28.80;57.70
27803;DHT22;15182;48.174;11.562;2023-07-20T11:56:29;28.80;58.20
27803;DHT22;15182;48.174;11.562;2023-07-20T11:58:57;28.80;58.20
27803;DHT22;15182;48.174;11.562;2023-07-20T12:01:29;29.00;58.60
27803;DHT22;15182;48.174;11.562;2023-07-20T12:03:59;29.10;57.80
27803;DHT22;15182;48.174;11.562;2023-07-20T12:06:29;29.30;58.50
27803;DHT22;15182;48.174;11.562;2023-07-20T12:08:58;29.40;57.40
27803;DHT22;15182;48.174;11.562;2023-07-20T12:11:34;29.50;57.40
27803;DHT22;15182;48.174;11.562;2023-07-20T12:14:03;29.70;57.00
27803;DHT22;15182;48.174;11.562;2023-07-20T12:16:35;29.70;56.90
27803;DHT22;15182;48.174;11.562;2023-07-20T12:19:05;29.70;56.60
27803;DHT22;15182;48.174;11.562;2023-07-20T12:21:35;29.70;56.80
27803;DHT22;15182;48.174;11.562;2023-07-20T12:24:04;29.60;56.90
27803;DHT22;15182;48.174;11.562;2023-07-20T12:26:33;29.50;56.80
27803;DHT22;15182;48.174;11.562;2023-07-20T12:29:02;29.40;56.80
27803;DHT22;15182;48.174;11.562;2023-07-20T12:31:30;29.30;57.00
27803;DHT22;15182;48.174;11.562;2023-07-20T12:33:59;29.30;57.10
27803;DHT22;15182;48.174;11.562;2023-07-20T12:36:27;29.30;57.30
27803;DHT22;15182;48.174;11.562;2023-07-20T12:38:55;29.30;57.60
27803;DHT22;15182;48.174;11.562;2023-07-20T12:41:22;29.30;57.40
27803;DHT22;15182;48.174;11.562;2023-07-20T12:43:50;29.30;57.10
27803;DHT22;15182;48.174;11.562;2023-07-20T12:46:19;29.30;57.20
27803;DHT22;15182;48.174;11.562;2023-07-20T12:48:48;29.20;57.10
27803;DHT22;15182;48.174;11.562;2023-07-20T12:51:17;29.20;57.20
27803;DHT22;15182;48.174;11.562;2023-07-20T12:53:45;29.10;57.10
27803;DHT22;15182;48.174;11.562;2023-07-20T12:56:13;29.10;57.40
27803;DHT22;15182;48.174;11.562;2023-07-20T12:58:41;29.10;57.10
27803;DHT22;15182;48.174;11.562;2023-07-20T13:01:09;29.10;57.40
27803;DHT22;15182;48.174;11.562;2023-07-20T13:03:37;29.20;57.10
27803;DHT22;15182;48.174;11.562;2023-07-20T13:06:05;29.20;57.30
27803;DHT22;15182;48.174;11.562;2023-07-20T13:08:34;29.40;57.30
27803;DHT22;15182;48.174;11.562;2023-07-20T13:11:01;29.50;57.20
27803;DHT22;15182;48.174;11.562;2023-07-20T13:13:31;29.60;57.20
27803;DHT22;15182;48.174;11.562;2023-07-20T13:15:58;29.70;57.20
27803;DHT22;15182;48.174;11.562;2023-07-20T13:18:26;29.90;56.90
27803;DHT22;15182;48.174;11.562;2023-07-20T13:20:55;30.10;57.40
27803;DHT22;15182;48.174;11.562;2023-07-20T13:23:23;30.10;56.30
27803;DHT22;15182;48.174;11.562;2023-07-20T13:25:52;30.20;56.00
27803;DHT22;15182;48.174;11.562;2023-07-20T13:28:20;30.20;56.20
27803;DHT22;15182;48.174;11.562;2023-07-20T13:30:47;30.20;56.10
27803;DHT22;15182;48.174;11.562;2023-07-20T13:33:15;30.20;56.30
27803;DHT22;15182;48.174;11.562;2023-07-20T13:35:43;30.20;56.30
27803;DHT22;15182;48.174;11.562;2023-07-20T13:38:11;30.30;56.70
27803;DHT22;15182;48.174;11.562;2023-07-20T13:40:38;30.30;56.10
27803;DHT22;15182;48.174;11.562;2023-07-20T13:43:08;30.40;56.20
27803;DHT22;15182;48.174;11.562;2023-07-20T13:45:35;30.50;56.00
27803;DHT22;15182;48.174;11.562;2023-07-20T13:48:03;30.60;55.90
27803;DHT22;15182;48.174;11.562;2023-07-20T13:50:31;30.70;55.80
27803;DHT22;15182;48.174;11.562;2023-07-20T13:52:59;30.70;55.80
27803;DHT22;15182;48.174;11.562;2023-07-20T13:55:29;30.90;55.50
27803;DHT22;15182;48.174;11.562;2023-07-20T13:57:57;31.00;55.80
27803;DHT22;15182;48.174;11.562;2023-07-20T14:00:26;31.00;55.10
27803;DHT22;15182;48.174;11.562;2023-07-20T14:02:57;31.10;55.20
27803;DHT22;15182;48.174;11.562;2023-07-20T14:05:24;31.10;55.10
27803;DHT22;15182;48.174;11.562;2023-07-20T14:07:52;31.20;55.60
27803;DHT22;15182;48.174;11.562;2023-07-20T14:10:20;31.30;54.70
27803;DHT22;15182;48.174;11.562;2023-07-20T14:12:48;31.30;54.60
27803;DHT22;15182;48.174;11.562;2023-07-20T14:15:16;31.40;54.20
27803;DHT22;15182;48.174;11.562;2023-07-20T14:17:46;31.50;54.20
27803;DHT22;15182;48.174;11.562;2023-07-20T14:20:14;31.50;54.20
27803;DHT22;15182;48.174;11.562;2023-07-20T14:22:42;31.40;54.10
27803;DHT22;15182;48.174;11.562;2023-07-20T14:25:10;31.40;54.10
27803;DHT22;15182;48.174;11.562;2023-07-20T14:27:38;31.40;54.10
27803;DHT22;15182;48.174;11.562;2023-07-20T14:30:07;31.30;54.10
27803;DHT22;15182;48.174;11.562;2023-07-20T14:32:35;31.30;54.90
27803;DHT22;15182;48.174;11.562;2023-07-20T14:35:05;31.30;54.50
27803;DHT22;15182;48.174;11.562;2023-07-20T14:37:33;31.30;54.00
27803;DHT22;15182;48.174;11.562;2023-07-20T14:40:01;31.30;54.00
27803;DHT22;15182;48.174;11.562;2023-07-20T14:42:31;31.30;54.10
27803;DHT22;15182;48.174;11.562;2023-07-20T14:44:59;31.20;54.00
27803;DHT22;15182;48.174;11.562;2023-07-20T14:47:27;31.20;54.10
27803;DHT22;15182;48.174;11.562;2023-07-20T14:49:58;31.20;54.30
27803;DHT22;15182;48.174;11.562;2023-07-20T14:52:27;31.20;54.80
27803;DHT22;15182;48.174;11.562;2023-07-20T14:54:55;31.20;54.30
27803;DHT22;15182;48.174;11.562;2023-07-20T14:57:23;31.10;54.50
27803;DHT22;15182;48.174;11.562;2023-07-20T14:59:51;31.10;54.40
27803;DHT22;15182;48.174;11.562;2023-07-20T15:02:19;31.10;54.60
27803;DHT22;15182;48.174;11.562;2023-07-20T15:04:48;31.10;54.10
27803;DHT22;15182;48.174;11.562;2023-07-20T15:07:17;31.00;54.10
27803;DHT22;15182;48.174;11.562;2023-07-20T15:09:47;31.00;53.80
27803;DHT22;15182;48.174;11.562;2023-07-20T15:12:15;30.90;53.80
27803;DHT22;15182;48.174;11.562;2023-07-20T15:14:43;30.80;54.00
27803;DHT22;15182;48.174;11.562;2023-07-20T15:17:11;30.70;54.30
27803;DHT22;15182;48.174;11.562;2023-07-20T15:19:39;30.60;54.20
27803;DHT22;15182;48.174;11.562;2023-07-20T15:22:07;30.50;54.30
27803;DHT22;15182;48.174;11.562;2023-07-20T15:24:35;30.50;54.40
27803;DHT22;15182;48.174;11.562;2023-07-20T15:27:05;30.40;54.30
27803;DHT22;15182;48.174;11.562;2023-07-20T15:29:34;30.30;54.60
27803;DHT22;15182;48.174;11.562;2023-07-20T15:32:03;30.30;54.70
27803;DHT22;15182;48.174;11.562;2023-07-20T15:34:32;30.30;54.60